sensor_id;sensor_type;location;lat;lon;timestamp;pressure;altitude;pressure_sealevel;temperature;humidity
20160;BME280;50187;50.492;12.134;2023-06-22T00:02:26;97905.47;;;26.35;46.63
20160;BME280;50187;50.492;12.134;2023-06-22T00:04:53;97889.91;;;26.29;46.51
20160;BME280;50187;50.492;12.134;2023-06-22T00:07:19;97890.19;;;26.34;46.71
20160;BME280;50187;50.492;12.134;2023-06-22T00:09:46;97894.56;;;26.35;46.65
20160;BME280;50187;50.492;12.134;2023-06-22T00:12:12;97900.22;;;26.34;46.80
20160;BME280;50187;50.492;12.134;2023-06-22T00:14:39;97892.91;;;26.34;46.68
20160;BME280;50187;50.492;12.134;2023-06-22T00:17:06;97902.75;;;26.35;46.74
20160;BME280;50187;50.492;12.134;2023-06-22T00:19:33;97896.47;;;26.35;46.80
20160;BME280;50187;50.492;12.134;2023-06-22T00:22:02;97894.78;;;26.34;46.63
20160;BME280;50187;50.492;12.134;2023-06-22T00:24:29;97893.94;;;26.33;46.66
20160;BME280;50187;50.492;12.134;2023-06-22T00:26:56;97889.50;;;26.32;46.69
20160;BME280;50187;50.492;12.134;2023-06-22T00:29:23;97895.63;;;26.34;46.54
20160;BME280;50187;50.492;12.134;2023-06-22T00:31:51;97901.44;;;26.31;46.53
20160;BME280;50187;50.492;12.134;2023-06-22T00:34:18;97894.78;;;26.34;46.78
20160;BME280;50187;50.492;12.134;2023-06-22T00:36:44;97899.41;;;26.33;46.64
20160;BME280;50187;50.492;12.134;2023-06-22T00:39:11;97901.44;;;26.31;46.56
20160;BME280;50187;50.492;12.134;2023-06-22T00:41:38;97893.09;;;26.33;46.81
20160;BME280;50187;50.492;12.134;2023-06-22T00:44:05;97888.69;;;26.32;46.66
20160;BME280;50187;50.492;12.134;2023-06-22T00:46:33;97896.66;;;26.33;46.46
20160;BME280;50187;50.492;12.134;2023-06-22T00:49:00;97897.69;;;26.32;46.65
20160;BME280;50187;50.492;12.134;2023-06-22T00:51:27;97903.16;;;26.32;46.67
20160;BME280;50187;50.492;12.134;2023-06-22T00:53:54;97897.06;;;26.30;46.55
20160;BME280;50187;50.492;12.134;2023-06-22T00:56:22;97896.88;;;26.32;46.57
20160;BME280;50187;50.492;12.134;2023-06-22T00:58:51;97896.88;;;26.32;46.56
20160;BME280;50187;50.492;12.134;2023-06-22T01:01:20;97896.00;;;26.31;46.71
20160;BME280;50187;50.492;12.134;2023-06-22T01:03:51;97891.81;;;26.29;46.57
20160;BME280;50187;50.492;12.134;2023-06-22T01:09:15;97870.63;;;26.31;46.43
20160;BME280;50187;50.492;12.134;2023-06-22T01:11:45;97873.34;;;26.31;46.55
20160;BME280;50187;50.492;12.134;2023-06-22T01:14:23;97876.06;;;26.31;46.70
20160;BME280;50187;50.492;12.134;2023-06-22T01:16:56;97866.19;;;26.30;46.56
20160;BME280;50187;50.492;12.134;2023-06-22T01:22:00;97864.53;;;26.29;46.57
20160;BME280;50187;50.492;12.134;2023-06-22T01:24:36;97863.66;;;26.28;46.54
20160;BME280;50187;50.492;12.134;2023-06-22T01:27:19;97851.72;;;26.29;46.55
20160;BME280;50187;50.492;12.134;2023-06-22T01:29:52;97847.31;;;26.28;46.61
20160;BME280;50187;50.492;12.134;2023-06-22T01:32:21;97833.88;;;26.27;46.43
20160;BME280;50187;50.492;12.134;2023-06-22T01:34:49;97836.41;;;26.28;46.34
20160;BME280;50187;50.492;12.134;2023-06-22T01:37:16;97846.47;;;26.28;46.46
20160;BME280;50187;50.492;12.134;2023-06-22T01:39:43;97850.03;;;26.28;46.53
20160;BME280;50187;50.492;12.134;2023-06-22T01:42:10;97862.84;;;26.28;46.66
20160;BME280;50187;50.492;12.134;2023-06-22T01:44:39;97869.13;;;26.28;46.45
20160;BME280;50187;50.492;12.134;2023-06-22T01:47:08;97872.72;;;26.29;46.35
20160;BME280;50187;50.492;12.134;2023-06-22T01:49:35;97873.94;;;26.26;46.44
20160;BME280;50187;50.492;12.134;2023-06-22T01:52:04;97862.84;;;26.28;46.43
20160;BME280;50187;50.492;12.134;2023-06-22T01:54:31;97864.53;;;26.29;46.56
20160;BME280;50187;50.492;12.134;2023-06-22T01:56:57;97866.41;;;26.28;46.46
20160;BME280;50187;50.492;12.134;2023-06-22T01:59:32;97870.19;;;26.27;46.18
20160;BME280;50187;50.492;12.134;2023-06-22T02:02:05;97874.56;;;26.28;46.42
20160;BME280;50187;50.492;12.134;2023-06-22T02:04:38;97881.09;;;26.27;46.33
20160;BME280;50187;50.492;12.134;2023-06-22T02:07:15;97868.50;;;26.26;46.35
20160;BME280;50187;50.492;12.134;2023-06-22T02:09:45;97870.19;;;26.27;46.35
20160;BME280;50187;50.492;12.134;2023-06-22T02:12:13;97890.09;;;26.28;46.29
20160;BME280;50187;50.492;12.134;2023-06-22T02:14:44;97883.81;;;26.27;46.38
20160;BME280;50187;50.492;12.134;2023-06-22T02:17:13;97886.53;;;26.27;46.38
20160;BME280;50187;50.492;12.134;2023-06-22T02:19:44;97877.50;;;26.27;46.36
20160;BME280;50187;50.492;12.134;2023-06-22T02:22:10;97877.50;;;26.27;46.33
20160;BME280;50187;50.492;12.134;2023-06-22T02:24:39;97885.69;;;26.27;46.24
20160;BME280;50187;50.492;12.134;2023-06-22T02:27:05;97893.88;;;26.27;46.32
20160;BME280;50187;50.492;12.134;2023-06-22T02:29:33;97887.78;;;26.25;46.37
20160;BME280;50187;50.492;12.134;2023-06-22T02:32:01;97890.50;;;26.25;46.38
20160;BME280;50187;50.492;12.134;2023-06-22T02:34:28;97882.31;;;26.25;46.28
20160;BME280;50187;50.492;12.134;2023-06-22T02:36:54;97884.19;;;26.24;46.34
20160;BME280;50187;50.492;12.134;2023-06-22T02:39:22;97876.88;;;26.25;46.37
20160;BME280;50187;50.492;12.134;2023-06-22T02:41:53;97874.97;;;26.25;46.22
20160;BME280;50187;50.492;12.134;2023-06-22T02:44:22;97865.09;;;26.24;46.29
20160;BME280;50187;50.492;12.134;2023-06-22T02:46:48;97858.81;;;26.23;46.33
20160;BME280;50187;50.492;12.134;2023-06-22T02:49:16;97854.38;;;26.22;46.17
20160;BME280;50187;50.492;12.134;2023-06-22T02:51:46;97855.06;;;26.25;46.35
20160;BME280;50187;50.492;12.134;2023-06-22T02:54:16;97860.69;;;26.23;46.16
20160;BME280;50187;50.492;12.134;2023-06-22T02:56:45;97845.56;;;26.20;46.19
20160;BME280;50187;50.492;12.134;2023-06-22T02:59:11;97855.25;;;26.23;46.36
20160;BME280;50187;50.492;12.134;2023-06-22T03:01:38;97856.28;;;26.22;46.16
20160;BME280;50187;50.492;12.134;2023-06-22T03:04:17;97851.66;;;26.22;46.17
20160;BME280;50187;50.492;12.134;2023-06-22T03:06:44;97849.78;;;26.23;46.17
20160;BME280;50187;50.492;12.134;2023-06-22T03:09:19;97839.25;;;26.20;46.13
20160;BME280;50187;50.492;12.134;2023-06-22T03:11:46;97847.06;;;26.23;46.29
20160;BME280;50187;50.492;12.134;2023-06-22T03:14:13;97838.22;;;26.21;46.20
20160;BME280;50187;50.492;12.134;2023-06-22T03:16:40;97829.00;;;26.22;46.22
20160;BME280;50187;50.492;12.134;2023-06-22T03:19:07;97832.78;;;26.21;46.04
20160;BME280;50187;50.492;12.134;2023-06-22T03:21:34;97848.09;;;26.22;46.09
20160;BME280;50187;50.492;12.134;2023-06-22T03:24:00;97847.25;;;26.21;46.13
20160;BME280;50187;50.492;12.134;2023-06-22T03:26:27;97861.72;;;26.22;46.07
20160;BME280;50187;50.492;12.134;2023-06-22T03:28:54;97872.84;;;26.20;46.06
20160;BME280;50187;50.492;12.134;2023-06-22T03:31:21;97879.13;;;26.21;46.15
20160;BME280;50187;50.492;12.134;2023-06-22T03:33:49;97894.44;;;26.22;46.14
20160;BME280;50187;50.492;12.134;2023-06-22T03:36:19;97894.19;;;26.17;46.21
20160;BME280;50187;50.492;12.134;2023-06-22T03:38:47;97908.91;;;26.22;46.07
20160;BME280;50187;50.492;12.134;2023-06-22T03:41:15;97915.44;;;26.21;45.99
20160;BME280;50187;50.492;12.134;2023-06-22T03:43:42;97928.88;;;26.23;46.05
20160;BME280;50187;50.492;12.134;2023-06-22T03:46:09;97953.41;;;26.23;46.11
20160;BME280;50187;50.492;12.134;2023-06-22T03:48:36;97982.56;;;26.22;45.90
20160;BME280;50187;50.492;12.134;2023-06-22T03:51:03;98010.69;;;26.23;46.02
20160;BME280;50187;50.492;12.134;2023-06-22T03:53:29;98021.59;;;26.23;45.98
20160;BME280;50187;50.492;12.134;2023-06-22T03:55:56;98039.63;;;26.24;46.11
20160;BME280;50187;50.492;12.134;2023-06-22T03:58:23;98047.81;;;26.24;45.98
20160;BME280;50187;50.492;12.134;2023-06-22T04:00:51;98059.59;;;26.25;45.94
20160;BME280;50187;50.492;12.134;2023-06-22T04:03:18;98043.41;;;26.23;45.90
20160;BME280;50187;50.492;12.134;2023-06-22T04:05:47;98033.53;;;26.22;45.97
20160;BME280;50187;50.492;12.134;2023-06-22T04:08:14;98019.22;;;26.20;45.93
20160;BME280;50187;50.492;12.134;2023-06-22T04:10:41;97998.28;;;26.20;46.10
20160;BME280;50187;50.492;12.134;2023-06-22T04:13:08;98002.03;;;26.19;45.89
20160;BME280;50187;50.492;12.134;2023-06-22T04:15:35;98014.63;;;26.20;45.94
20160;BME280;50187;50.492;12.134;2023-06-22T04:18:02;98016.50;;;26.20;46.07
20160;BME280;50187;50.492;12.134;2023-06-22T04:20:29;98032.03;;;26.19;46.06
20160;BME280;50187;50.492;12.134;2023-06-22T04:22:55;98028.28;;;26.20;46.07
20160;BME280;50187;50.492;12.134;2023-06-22T04:25:22;98033.00;;;26.12;46.12
20160;BME280;50187;50.492;12.134;2023-06-22T04:27:49;98006.38;;;26.14;46.03
20160;BME280;50187;50.492;12.134;2023-06-22T04:30:16;97992.34;;;26.17;46.07
20160;BME280;50187;50.492;12.134;2023-06-22T04:32:43;97999.88;;;26.15;46.05
20160;BME280;50187;50.492;12.134;2023-06-22T04:35:11;97986.88;;;26.17;45.90
20160;BME280;50187;50.492;12.134;2023-06-22T04:37:38;97987.75;;;26.17;46.04
20160;BME280;50187;50.492;12.134;2023-06-22T04:40:06;97998.19;;;26.14;45.97
20160;BME280;50187;50.492;12.134;2023-06-22T04:42:34;97986.88;;;26.17;46.04
20160;BME280;50187;50.492;12.134;2023-06-22T04:45:03;97975.97;;;26.17;46.07
20160;BME280;50187;50.492;12.134;2023-06-22T04:47:29;97970.53;;;26.17;46.13
20160;BME280;50187;50.492;12.134;2023-06-22T04:49:56;97948.06;;;26.15;46.03
20160;BME280;50187;50.492;12.134;2023-06-22T04:52:23;97914.69;;;26.13;45.97
20160;BME280;50187;50.492;12.134;2023-06-22T04:54:51;97878.22;;;26.14;46.17
20160;BME280;50187;50.492;12.134;2023-06-22T04:57:22;97822.00;;;26.13;46.16
20160;BME280;50187;50.492;12.134;2023-06-22T04:59:59;97757.81;;;26.10;46.29
20160;BME280;50187;50.492;12.134;2023-06-22T05:02:39;97744.34;;;26.09;46.29
20160;BME280;50187;50.492;12.134;2023-06-22T05:05:06;97751.69;;;26.08;46.17
20160;BME280;50187;50.492;12.134;2023-06-22T05:07:34;97765.13;;;26.10;46.19
20160;BME280;50187;50.492;12.134;2023-06-22T05:10:02;97739.75;;;26.09;46.07
20160;BME280;50187;50.492;12.134;2023-06-22T05:12:30;97708.28;;;26.07;46.09
20160;BME280;50187;50.492;12.134;2023-06-22T05:14:57;97695.94;;;26.11;46.06
20160;BME280;50187;50.492;12.134;2023-06-22T05:17:24;97694.06;;;26.11;46.24
20160;BME280;50187;50.492;12.134;2023-06-22T05:19:50;97697.84;;;26.10;46.29
20160;BME280;50187;50.492;12.134;2023-06-22T05:22:17;97706.66;;;26.12;46.33
20160;BME280;50187;50.492;12.134;2023-06-22T05:24:45;97714.00;;;26.12;46.20
20160;BME280;50187;50.492;12.134;2023-06-22T05:27:13;97701.19;;;26.12;46.13
20160;BME280;50187;50.492;12.134;2023-06-22T05:29:40;97718.38;;;26.13;46.31
20160;BME280;50187;50.492;12.134;2023-06-22T05:32:07;97733.72;;;26.14;46.17
20160;BME280;50187;50.492;12.134;2023-06-22T05:34:34;97736.25;;;26.15;46.25
20160;BME280;50187;50.492;12.134;2023-06-22T05:37:01;97729.97;;;26.15;46.12
20160;BME280;50187;50.492;12.134;2023-06-22T05:39:28;97743.59;;;26.15;46.17
20160;BME280;50187;50.492;12.134;2023-06-22T05:41:55;97764.38;;;26.16;46.17
20160;BME280;50187;50.492;12.134;2023-06-22T05:44:21;97763.50;;;26.15;46.27
20160;BME280;50187;50.492;12.134;2023-06-22T05:46:48;97753.84;;;26.13;46.48
20160;BME280;50187;50.492;12.134;2023-06-22T05:49:15;97758.25;;;26.14;46.89
20160;BME280;50187;50.492;12.134;2023-06-22T05:51:43;97748.00;;;26.16;46.61
20160;BME280;50187;50.492;12.134;2023-06-22T05:54:09;97757.84;;;26.17;46.68
20160;BME280;50187;50.492;12.134;2023-06-22T05:56:39;97775.28;;;26.16;46.94
20160;BME280;50187;50.492;12.134;2023-06-22T05:59:05;97769.81;;;26.16;47.16
20160;BME280;50187;50.492;12.134;2023-06-22T06:01:32;97766.03;;;26.17;47.16
20160;BME280;50187;50.492;12.134;2023-06-22T06:04:03;97773.56;;;26.15;47.18
20160;BME280;50187;50.492;12.134;2023-06-22T06:06:30;97790.56;;;26.17;47.37
20160;BME280;50187;50.492;12.134;2023-06-22T06:08:57;97783.25;;;26.17;47.53
20160;BME280;50187;50.492;12.134;2023-06-22T06:11:25;97781.34;;;26.18;47.48
20160;BME280;50187;50.492;12.134;2023-06-22T06:13:52;97800.03;;;26.21;47.56
20160;BME280;50187;50.492;12.134;2023-06-22T06:16:19;97801.94;;;26.20;47.51
20160;BME280;50187;50.492;12.134;2023-06-22T06:18:45;97800.72;;;26.23;47.75
20160;BME280;50187;50.492;12.134;2023-06-22T06:21:12;97797.31;;;26.21;47.83
20160;BME280;50187;50.492;12.134;2023-06-22T06:23:39;97800.66;;;26.16;48.30
20160;BME280;50187;50.492;12.134;2023-06-22T06:26:05;97801.47;;;26.17;48.32
20160;BME280;50187;50.492;12.134;2023-06-22T06:28:34;97804.19;;;26.17;48.65
20160;BME280;50187;50.492;12.134;2023-06-22T06:31:01;97802.53;;;26.16;48.67
20160;BME280;50187;50.492;12.134;2023-06-22T06:33:27;97808.22;;;26.21;48.60
20160;BME280;50187;50.492;12.134;2023-06-22T06:35:54;97796.91;;;26.24;48.69
20160;BME280;50187;50.492;12.134;2023-06-22T06:38:22;97802.38;;;26.24;48.43
20160;BME280;50187;50.492;12.134;2023-06-22T06:40:48;97801.34;;;26.25;48.62
20160;BME280;50187;50.492;12.134;2023-06-22T06:43:15;97796.72;;;26.26;48.73
20160;BME280;50187;50.492;12.134;2023-06-22T06:45:42;97791.88;;;26.21;48.75
20160;BME280;50187;50.492;12.134;2023-06-22T06:48:08;97799.00;;;26.22;48.76
20160;BME280;50187;50.492;12.134;2023-06-22T06:50:35;97796.09;;;26.23;48.82
20160;BME280;50187;50.492;12.134;2023-06-22T06:53:03;97793.56;;;26.22;48.90
20160;BME280;50187;50.492;12.134;2023-06-22T06:55:29;97792.97;;;26.27;49.05
20160;BME280;50187;50.492;12.134;2023-06-22T06:57:59;97791.09;;;26.27;49.00
20160;BME280;50187;50.492;12.134;2023-06-22T07:00:26;97799.00;;;26.22;48.95
20160;BME280;50187;50.492;12.134;2023-06-22T07:02:53;97791.66;;;26.22;49.27
20160;BME280;50187;50.492;12.134;2023-06-22T07:05:20;97788.94;;;26.22;49.16
20160;BME280;50187;50.492;12.134;2023-06-22T07:07:47;97795.69;;;26.27;49.21
20160;BME280;50187;50.492;12.134;2023-06-22T07:10:13;97796.16;;;26.30;49.02
20160;BME280;50187;50.492;12.134;2023-06-22T07:12:41;97794.25;;;26.31;49.03
20160;BME280;50187;50.492;12.134;2023-06-22T07:15:09;97797.88;;;26.38;48.92
20160;BME280;50187;50.492;12.134;2023-06-22T07:17:36;97797.69;;;26.39;49.06
20160;BME280;50187;50.492;12.134;2023-06-22T07:20:04;97796.03;;;26.45;48.78
20160;BME280;50187;50.492;12.134;2023-06-22T07:22:39;97794.81;;;26.48;48.96
20160;BME280;50187;50.492;12.134;2023-06-22T07:25:06;97792.69;;;26.43;49.01
20160;BME280;50187;50.492;12.134;2023-06-22T07:27:37;97796.72;;;26.47;49.25
20160;BME280;50187;50.492;12.134;2023-06-22T07:30:04;97790.38;;;26.47;49.09
20160;BME280;50187;50.492;12.134;2023-06-22T07:32:31;97790.59;;;26.45;48.91
20160;BME280;50187;50.492;12.134;2023-06-22T07:34:58;97778.84;;;26.45;49.08
20160;BME280;50187;50.492;12.134;2023-06-22T07:37:25;97779.69;;;26.45;48.99
20160;BME280;50187;50.492;12.134;2023-06-22T07:39:53;97781.16;;;26.48;48.92
20160;BME280;50187;50.492;12.134;2023-06-22T07:42:25;97781.63;;;26.51;49.16
20160;BME280;50187;50.492;12.134;2023-06-22T07:44:52;97781.44;;;26.53;49.26
20160;BME280;50187;50.492;12.134;2023-06-22T07:47:19;97784.16;;;26.53;48.93
20160;BME280;50187;50.492;12.134;2023-06-22T07:49:46;97763.16;;;26.53;48.54
20160;BME280;50187;50.492;12.134;2023-06-22T07:52:13;97771.16;;;26.55;48.81
20160;BME280;50187;50.492;12.134;2023-06-22T07:54:39;97762.19;;;26.61;48.97
20160;BME280;50187;50.492;12.134;2023-06-22T07:57:06;97756.94;;;26.66;48.85
20160;BME280;50187;50.492;12.134;2023-06-22T07:59:32;97758.94;;;26.72;48.54
20160;BME280;50187;50.492;12.134;2023-06-22T08:01:59;97756.19;;;26.72;48.75
20160;BME280;50187;50.492;12.134;2023-06-22T08:04:26;97754.56;;;26.78;48.49
20160;BME280;50187;50.492;12.134;2023-06-22T08:06:53;97756.47;;;26.84;48.48
20160;BME280;50187;50.492;12.134;2023-06-22T08:09:20;97754.81;;;26.90;48.56
20160;BME280;50187;50.492;12.134;2023-06-22T08:11:47;97753.16;;;26.96;48.31
20160;BME280;50187;50.492;12.134;2023-06-22T08:14:14;97750.88;;;26.99;48.18
20160;BME280;50187;50.492;12.134;2023-06-22T08:16:41;97750.47;;;27.02;48.02
20160;BME280;50187;50.492;12.134;2023-06-22T08:19:08;97753.63;;;27.06;48.01
20160;BME280;50187;50.492;12.134;2023-06-22T08:21:34;97744.19;;;27.08;47.94
20160;BME280;50187;50.492;12.134;2023-06-22T08:24:02;97737.06;;;27.14;47.61
20160;BME280;50187;50.492;12.134;2023-06-22T08:26:29;97746.75;;;27.17;47.62
20160;BME280;50187;50.492;12.134;2023-06-22T08:28:55;97742.97;;;27.18;47.55
20160;BME280;50187;50.492;12.134;2023-06-22T08:31:22;97743.41;;;27.21;47.26
20160;BME280;50187;50.492;12.134;2023-06-22T08:33:50;97744.47;;;27.27;47.22
20160;BME280;50187;50.492;12.134;2023-06-22T08:36:18;97734.00;;;27.31;47.05
20160;BME280;50187;50.492;12.134;2023-06-22T08:38:45;97738.63;;;27.30;47.08
20160;BME280;50187;50.492;12.134;2023-06-22T08:41:14;97738.19;;;27.33;47.12
20160;BME280;50187;50.492;12.134;2023-06-22T08:43:41;97749.56;;;27.37;47.12
20160;BME280;50187;50.492;12.134;2023-06-22T08:46:08;97725.66;;;27.39;46.84
20160;BME280;50187;50.492;12.134;2023-06-22T08:48:35;97722.50;;;27.42;46.79
20160;BME280;50187;50.492;12.134;2023-06-22T08:51:01;97722.28;;;27.44;46.66
20160;BME280;50187;50.492;12.134;2023-06-22T08:53:28;97718.50;;;27.45;46.57
20160;BME280;50187;50.492;12.134;2023-06-22T08:55:55;97716.19;;;27.48;46.72
20160;BME280;50187;50.492;12.134;2023-06-22T08:58:22;97712.22;;;27.51;46.87
20160;BME280;50187;50.492;12.134;2023-06-22T09:00:50;97714.53;;;27.54;46.98
20160;BME280;50187;50.492;12.134;2023-06-22T09:03:18;97716.22;;;27.55;46.75
20160;BME280;50187;50.492;12.134;2023-06-22T09:05:47;97705.94;;;27.57;46.88
20160;BME280;50187;50.492;12.134;2023-06-22T09:08:14;97702.78;;;27.60;46.61
20160;BME280;50187;50.492;12.134;2023-06-22T09:10:40;97700.66;;;27.62;46.58
20160;BME280;50187;50.492;12.134;2023-06-22T09:13:07;97701.31;;;27.64;46.59
20160;BME280;50187;50.492;12.134;2023-06-22T09:15:33;97695.84;;;27.64;46.45
20160;BME280;50187;50.492;12.134;2023-06-22T09:18:01;97702.38;;;27.70;46.39
20160;BME280;50187;50.492;12.134;2023-06-22T09:20:28;97697.75;;;27.70;46.53
20160;BME280;50187;50.492;12.134;2023-06-22T09:22:55;97693.97;;;27.71;46.34
20160;BME280;50187;50.492;12.134;2023-06-22T09:25:21;97683.25;;;27.70;46.29
20160;BME280;50187;50.492;12.134;2023-06-22T09:27:48;97677.97;;;27.75;46.29
20160;BME280;50187;50.492;12.134;2023-06-22T09:30:15;97685.34;;;27.81;46.10
20160;BME280;50187;50.492;12.134;2023-06-22T09:32:41;97677.97;;;27.82;46.22
20160;BME280;50187;50.492;12.134;2023-06-22T09:35:09;97679.47;;;27.84;45.98
20160;BME280;50187;50.492;12.134;2023-06-22T09:37:38;97681.16;;;27.85;45.98
20160;BME280;50187;50.492;12.134;2023-06-22T09:40:06;97677.56;;;27.85;45.89
20160;BME280;50187;50.492;12.134;2023-06-22T09:42:37;97684.28;;;27.82;45.73
20160;BME280;50187;50.492;12.134;2023-06-22T09:45:05;97680.31;;;27.91;45.84
20160;BME280;50187;50.492;12.134;2023-06-22T09:47:32;97683.03;;;27.91;45.96
20160;BME280;50187;50.492;12.134;2023-06-22T09:49:59;97669.16;;;27.93;45.68
20160;BME280;50187;50.492;12.134;2023-06-22T09:52:26;97653.59;;;27.87;45.94
20160;BME280;50187;50.492;12.134;2023-06-22T09:55:08;97667.06;;;27.95;45.82
20160;BME280;50187;50.492;12.134;2023-06-22T09:57:35;97663.69;;;27.93;46.06
20160;BME280;50187;50.492;12.134;2023-06-22T10:00:03;97656.13;;;27.95;45.89
20160;BME280;50187;50.492;12.134;2023-06-22T10:02:33;97656.13;;;27.95;45.92
20160;BME280;50187;50.492;12.134;2023-06-22T10:05:00;97649.59;;;27.96;45.85
20160;BME280;50187;50.492;12.134;2023-06-22T10:07:27;97657.78;;;27.96;45.48
20160;BME280;50187;50.492;12.134;2023-06-22T10:09:54;97649.59;;;27.96;45.56
20160;BME280;50187;50.492;12.134;2023-06-22T10:12:20;97642.25;;;27.97;45.36
20160;BME280;50187;50.492;12.134;2023-06-22T10:14:48;97644.75;;;27.98;45.58
20160;BME280;50187;50.492;12.134;2023-06-22T10:17:15;97645.19;;;27.95;45.46
20160;BME280;50187;50.492;12.134;2023-06-22T10:19:42;97645.63;;;27.99;45.45
20160;BME280;50187;50.492;12.134;2023-06-22T10:22:08;97649.38;;;27.98;45.33
20160;BME280;50187;50.492;12.134;2023-06-22T10:24:35;97649.38;;;27.98;45.37
20160;BME280;50187;50.492;12.134;2023-06-22T10:27:02;97653.63;;;28.00;45.34
20160;BME280;50187;50.492;12.134;2023-06-22T10:29:28;97650.66;;;28.02;45.44
20160;BME280;50187;50.492;12.134;2023-06-22T10:31:55;97636.16;;;28.01;45.32
20160;BME280;50187;50.492;12.134;2023-06-22T10:34:22;97637.00;;;28.02;45.26
20160;BME280;50187;50.492;12.134;2023-06-22T10:36:48;97635.94;;;28.03;45.38
20160;BME280;50187;50.492;12.134;2023-06-22T10:39:15;97635.94;;;28.03;45.32
20160;BME280;50187;50.492;12.134;2023-06-22T10:41:42;97623.09;;;28.03;45.20
20160;BME280;50187;50.492;12.134;2023-06-22T10:44:09;97616.59;;;28.04;45.26
20160;BME280;50187;50.492;12.134;2023-06-22T10:46:35;97609.25;;;28.05;45.26
20160;BME280;50187;50.492;12.134;2023-06-22T10:49:02;97609.84;;;28.07;45.12
20160;BME280;50187;50.492;12.134;2023-06-22T10:51:29;97614.50;;;28.06;45.12
20160;BME280;50187;50.492;12.134;2023-06-22T10:53:57;97613.63;;;28.06;45.12
20160;BME280;50187;50.492;12.134;2023-06-22T10:56:24;97607.13;;;28.07;45.17
20160;BME280;50187;50.492;12.134;2023-06-22T10:58:50;97602.50;;;28.07;44.96
20160;BME280;50187;50.492;12.134;2023-06-22T11:01:17;97610.47;;;28.09;44.89
20160;BME280;50187;50.492;12.134;2023-06-22T11:04:00;97601.44;;;28.08;45.07
20160;BME280;50187;50.492;12.134;2023-06-22T11:06:28;97602.09;;;28.10;44.97
20160;BME280;50187;50.492;12.134;2023-06-22T11:08:54;97604.81;;;28.10;45.02
20160;BME280;50187;50.492;12.134;2023-06-22T11:11:32;97602.91;;;28.11;45.05
20160;BME280;50187;50.492;12.134;2023-06-22T11:13:59;97601.00;;;28.12;44.78
20160;BME280;50187;50.492;12.134;2023-06-22T11:16:25;97595.75;;;28.10;44.87
20160;BME280;50187;50.492;12.134;2023-06-22T11:18:52;97598.28;;;28.12;44.95
20160;BME280;50187;50.492;12.134;2023-06-22T11:21:18;97595.31;;;28.13;44.75
20160;BME280;50187;50.492;12.134;2023-06-22T11:23:45;97589.03;;;28.13;44.93
20160;BME280;50187;50.492;12.134;2023-06-22T11:26:12;97581.66;;;28.13;44.69
20160;BME280;50187;50.492;12.134;2023-06-22T11:28:38;97577.25;;;28.12;44.75
20160;BME280;50187;50.492;12.134;2023-06-22T11:31:05;97571.13;;;28.10;44.70
20160;BME280;50187;50.492;12.134;2023-06-22T11:33:51;97561.91;;;28.11;44.88
20160;BME280;50187;50.492;12.134;2023-06-22T11:36:18;97558.13;;;28.12;44.82
20160;BME280;50187;50.492;12.134;2023-06-22T11:38:45;97558.13;;;28.12;44.91
20160;BME280;50187;50.492;12.134;2023-06-22T11:41:12;97556.84;;;28.08;44.81
20160;BME280;50187;50.492;12.134;2023-06-22T11:43:39;97551.16;;;28.09;44.70
20160;BME280;50187;50.492;12.134;2023-06-22T11:46:06;97547.19;;;28.05;44.67
20160;BME280;50187;50.492;12.134;2023-06-22T11:48:33;97559.97;;;28.12;44.68
20160;BME280;50187;50.492;12.134;2023-06-22T11:50:59;97557.25;;;28.12;44.55
20160;BME280;50187;50.492;12.134;2023-06-22T11:53:26;97542.75;;;28.11;44.78
20160;BME280;50187;50.492;12.134;2023-06-22T11:55:53;97545.69;;;28.09;44.71
20160;BME280;50187;50.492;12.134;2023-06-22T11:58:22;97537.50;;;28.09;44.54
20160;BME280;50187;50.492;12.134;2023-06-22T12:00:48;97537.50;;;28.09;44.58
20160;BME280;50187;50.492;12.134;2023-06-22T12:03:18;97530.34;;;28.08;44.39
20160;BME280;50187;50.492;12.134;2023-06-22T12:05:46;97535.19;;;28.06;44.56
20160;BME280;50187;50.492;12.134;2023-06-22T12:08:12;97523.19;;;28.07;44.67
20160;BME280;50187;50.492;12.134;2023-06-22T12:10:40;97524.88;;;28.08;44.56
20160;BME280;50187;50.492;12.134;2023-06-22T12:13:07;97522.34;;;28.07;44.64
20160;BME280;50187;50.492;12.134;2023-06-22T12:15:33;97517.09;;;28.05;44.71
20160;BME280;50187;50.492;12.134;2023-06-22T12:18:00;97507.22;;;28.04;44.73
20160;BME280;50187;50.492;12.134;2023-06-22T12:20:28;97506.38;;;28.04;44.69
20160;BME280;50187;50.492;12.134;2023-06-22T12:22:55;97508.91;;;28.05;44.78
20160;BME280;50187;50.492;12.134;2023-06-22T12:25:24;97503.88;;;28.02;44.64
20160;BME280;50187;50.492;12.134;2023-06-22T12:27:51;97492.50;;;27.99;44.59
20160;BME280;50187;50.492;12.134;2023-06-22T12:30:18;97498.41;;;28.02;44.61
20160;BME280;50187;50.492;12.134;2023-06-22T12:32:45;97491.47;;;28.00;44.76
20160;BME280;50187;50.492;12.134;2023-06-22T12:35:12;97479.69;;;27.99;44.72
20160;BME280;50187;50.492;12.134;2023-06-22T12:37:41;97469.78;;;27.98;44.60
20160;BME280;50187;50.492;12.134;2023-06-22T12:40:09;97476.97;;;27.99;44.69
20160;BME280;50187;50.492;12.134;2023-06-22T12:42:36;97479.03;;;27.97;44.70
20160;BME280;50187;50.492;12.134;2023-06-22T12:45:04;97473.38;;;27.99;44.63
20160;BME280;50187;50.492;12.134;2023-06-22T12:47:31;97465.16;;;27.99;44.67
20160;BME280;50187;50.492;12.134;2023-06-22T12:49:57;97457.16;;;27.97;44.76
20160;BME280;50187;50.492;12.134;2023-06-22T12:52:24;97468.09;;;27.97;44.70
20160;BME280;50187;50.492;12.134;2023-06-22T12:54:51;97462.00;;;27.95;44.76
20160;BME280;50187;50.492;12.134;2023-06-22T12:57:21;97487.66;;;27.94;44.84
20160;BME280;50187;50.492;12.134;2023-06-22T12:59:48;97474.00;;;27.94;44.79